M/T Filos — 9HQB8 — position and weather

sailwx.info

Track history (hours):
 
Tides and Currents Weather Stations Pressure Air Temp Water Temp Dewpoint Dewpoint Depression Visibility Wind Speed Wind Dir Waves Ship Positions

M/T Filos

Last reported at 2014-Dec-20 19:22 UTC. Time now 2014-Dec-21 16:33 UTC.
Position N 36°54' W 006°53'.

Length 180 m; draft 7.4 m.

Type: Tanker. MMSI: 224561000.

Date/timePositionNaut miles runAvg speedWind from/ knotsBaromVisibWave heightAir tempDewpointWater temp
2014-Dec-20 19:22N 36°54' W 006°53'5 1.0
2014-Dec-20 14:05N 36°58' W 006°49'611.3
2014-Dec-20 13:30N 37°04' W 006°49'  
2014-Dec-17 23:22N 35°58' W 005°34'8 9.2
2014-Dec-17 22:28N 36°00' W 005°24'8 8.5
2014-Dec-17 21:34N 36°01' W 005°15'21010.8
2014-Dec-17 02:12N 37°10' W 001°08'812.0
2014-Dec-17 01:34N 37°15' W 001°01'1211.8
2014-Dec-17 00:34N 37°23' W 000°50'1212.0
2014-Dec-16 23:33N 37°31' W 000°38'1211.8
2014-Dec-16 22:33N 37°40' W 000°29'1212.1
2014-Dec-16 21:33N 37°50' W 000°20'1212.0
2014-Dec-16 20:33N 37°60' W 000°12'13212.0
2014-Dec-16 09:32N 39°60' E 000°60'1212.6
2014-Dec-16 08:33N 40°12' E 001°01'1412.1
2014-Dec-16 07:25N 40°26' E 001°03'41 1.2
2014-Dec-14 22:08N 41°06' E 001°17'13 8.5
2014-Dec-14 20:33N 41°04' E 001°34'1110.8
2014-Dec-14 19:34N 41°04' E 001°49'1110.7
2014-Dec-14 18:32N 41°05' E 002°03'1511.4
2014-Dec-14 17:14N 41°13' E 002°20'811.2
2014-Dec-14 16:29N 41°17' E 002°30'1110.9
2014-Dec-14 15:28N 41°22' E 002°43'1111.0
2014-Dec-14 14:30N 41°28' E 002°55'1211.5
2014-Dec-14 13:26N 41°36' E 003°07'1211.5
2014-Dec-14 12:23N 41°45' E 003°18'2611.6
2014-Dec-14 10:08N 42°04' E 003°43'8611.3
2014-Dec-14 02:33N 43°09' E 004°58'9 9.5
2014-Dec-14 01:34N 43°19' E 004°58'7 7.3
2014-Dec-14 00:34N 43°25' E 004°53'0 0.0
2014-Dec-13 23:34N 43°25' E 004°53'0 0.0
2014-Dec-13 22:34N 43°25' E 004°53'0 0.0
2014-Dec-13 21:34N 43°25' E 004°53'0 0.0
2014-Dec-13 20:34N 43°25' E 004°53'0 0.0
2014-Dec-13 19:31N 43°25' E 004°53'0 0.0
2014-Dec-13 18:31N 43°25' E 004°53'0 0.0
2014-Dec-13 17:34N 43°25' E 004°53'0 0.0
2014-Dec-13 16:34N 43°25' E 004°53'0 0.0
2014-Dec-13 15:34N 43°25' E 004°53'0 0.0
2014-Dec-13 14:34N 43°25' E 004°53'0 0.0
2014-Dec-13 13:34N 43°25' E 004°53'0 0.0
2014-Dec-13 12:31N 43°25' E 004°53'0 0.0
2014-Dec-13 11:28N 43°25' E 004°53'0 0.0
2014-Dec-13 10:34N 43°25' E 004°53'0 0.0
2014-Dec-13 09:33N 43°25' E 004°53'0 0.0
2014-Dec-13 08:33N 43°25' E 004°53'0 0.0
2014-Dec-13 07:34N 43°25' E 004°53'0 0.0
2014-Dec-13 06:34N 43°25' E 004°53'0 0.0
2014-Dec-13 05:33N 43°25' E 004°53'0 0.0
2014-Dec-13 04:33N 43°25' E 004°53'0 0.0
2014-Dec-13 03:33N 43°25' E 004°53'0 0.0
2014-Dec-13 02:33N 43°25' E 004°53'1 1.1
2014-Dec-13 01:32N 43°25' E 004°55'0 0.0
2014-Dec-13 00:32N 43°25' E 004°55'0 0.0
2014-Dec-12 23:32N 43°25' E 004°55'0 0.0
2014-Dec-12 22:32N 43°25' E 004°55'0 0.0
2014-Dec-12 21:32N 43°25' E 004°55'0 0.1
2014-Dec-12 20:32N 43°25' E 004°55'0 0.0
2014-Dec-12 19:32N 43°25' E 004°55'0 0.0
2014-Dec-12 18:32N 43°25' E 004°55'0 0.0
2014-Dec-12 17:32N 43°25' E 004°55'0 0.0
2014-Dec-12 16:32N 43°25' E 004°55'0 0.0
2014-Dec-12 15:32N 43°25' E 004°55'0 0.0
2014-Dec-12 14:32N 43°25' E 004°55'0 0.0
2014-Dec-12 13:32N 43°25' E 004°55'0 0.0
2014-Dec-12 12:32N 43°25' E 004°55'0 0.0
2014-Dec-12 11:32N 43°25' E 004°55'0 0.0
2014-Dec-12 10:32N 43°25' E 004°55'0 0.0
2014-Dec-12 09:32N 43°25' E 004°55'0 0.0
2014-Dec-12 08:32N 43°25' E 004°55'0 0.0
2014-Dec-12 07:32N 43°25' E 004°55'0 0.0
2014-Dec-12 06:32N 43°25' E 004°55'0 0.1
2014-Dec-12 05:32N 43°25' E 004°55'0 0.0
2014-Dec-12 04:32N 43°25' E 004°55'0 0.0
2014-Dec-12 03:32N 43°25' E 004°55'0 0.0
2014-Dec-12 02:32N 43°25' E 004°55'0 0.0
2014-Dec-12 01:32N 43°25' E 004°55'0 0.0
2014-Dec-12 00:32N 43°25' E 004°55'0 0.0
2014-Dec-11 23:32N 43°25' E 004°55'5 4.6
2014-Dec-11 22:33N 43°21' E 004°59'8 8.3
2014-Dec-11 21:33N 43°13' E 005°02'9 8.9
2014-Dec-11 20:33N 43°06' E 004°55'10 9.8
2014-Dec-11 19:34N 42°59' E 004°46'9 9.1
2014-Dec-11 18:33N 42°52' E 004°38'9 9.1
2014-Dec-11 17:32N 42°45' E 004°29'12 8.4
2014-Dec-11 16:07N 42°37' E 004°17'5 7.3
2014-Dec-11 15:25N 42°33' E 004°12'15 7.4
2014-Dec-11 13:24N 42°22' E 003°59'7 6.4
2014-Dec-11 12:18N 42°16' E 003°55'4 3.9
2014-Dec-11 11:19N 42°12' E 003°53'4 5.6
2014-Dec-11 10:33N 42°08' E 003°50'5 5.4
2014-Dec-11 09:33N 42°05' E 003°45'5 4.6
2014-Dec-11 08:32N 42°02' E 003°40'5 4.5
2014-Dec-11 07:32N 41°60' E 003°34'6 5.7
2014-Dec-11 06:33N 41°57' E 003°28'6 6.0
2014-Dec-11 05:33N 41°51' E 003°27'8 8.3
2014-Dec-11 04:33N 41°45' E 003°19'1110.8
2014-Dec-11 03:33N 41°37' E 003°09'1211.3
2014-Dec-11 02:31N 41°30' E 002°57'1110.9
2014-Dec-11 01:33N 41°26' E 002°44'1110.7
2014-Dec-11 00:33N 41°22' E 002°31'  
Track history (hours):
 
Tides and Currents Weather Stations Pressure Air Temp Water Temp Dewpoint Dewpoint Depression Visibility Wind Speed Wind Dir Waves Ship Positions

M/T Filos

Last reported at 2014-Dec-20 19:22 UTC. Time now 2014-Dec-21 16:33 UTC.
Position N 36°54' W 006°53'.

Length 180 m; draft 7.4 m.

Type: Tanker. MMSI: 224561000.

Date/timePositionNaut miles runAvg speedWind from/ knotsBaromVisibWave heightAir tempDewpointWater temp
2014-Dec-20 19:22N 36°54' W 006°53'5 1.0
2014-Dec-20 14:05N 36°58' W 006°49'611.3
2014-Dec-20 13:30N 37°04' W 006°49'  
2014-Dec-17 23:22N 35°58' W 005°34'8 9.2
2014-Dec-17 22:28N 36°00' W 005°24'8 8.5
2014-Dec-17 21:34N 36°01' W 005°15'21010.8
2014-Dec-17 02:12N 37°10' W 001°08'812.0
2014-Dec-17 01:34N 37°15' W 001°01'1211.8
2014-Dec-17 00:34N 37°23' W 000°50'1212.0
2014-Dec-16 23:33N 37°31' W 000°38'1211.8
2014-Dec-16 22:33N 37°40' W 000°29'1212.1
2014-Dec-16 21:33N 37°50' W 000°20'1212.0
2014-Dec-16 20:33N 37°60' W 000°12'13212.0
2014-Dec-16 09:32N 39°60' E 000°60'1212.6
2014-Dec-16 08:33N 40°12' E 001°01'1412.1
2014-Dec-16 07:25N 40°26' E 001°03'41 1.2
2014-Dec-14 22:08N 41°06' E 001°17'13 8.5
2014-Dec-14 20:33N 41°04' E 001°34'1110.8
2014-Dec-14 19:34N 41°04' E 001°49'1110.7
2014-Dec-14 18:32N 41°05' E 002°03'1511.4
2014-Dec-14 17:14N 41°13' E 002°20'811.2
2014-Dec-14 16:29N 41°17' E 002°30'1110.9
2014-Dec-14 15:28N 41°22' E 002°43'1111.0
2014-Dec-14 14:30N 41°28' E 002°55'1211.5
2014-Dec-14 13:26N 41°36' E 003°07'1211.5
2014-Dec-14 12:23N 41°45' E 003°18'2611.6
2014-Dec-14 10:08N 42°04' E 003°43'8611.3
2014-Dec-14 02:33N 43°09' E 004°58'9 9.5
2014-Dec-14 01:34N 43°19' E 004°58'7 7.3
2014-Dec-14 00:34N 43°25' E 004°53'0 0.0
2014-Dec-13 23:34N 43°25' E 004°53'0 0.0
2014-Dec-13 22:34N 43°25' E 004°53'0 0.0
2014-Dec-13 21:34N 43°25' E 004°53'0 0.0
2014-Dec-13 20:34N 43°25' E 004°53'0 0.0
2014-Dec-13 19:31N 43°25' E 004°53'0 0.0
2014-Dec-13 18:31N 43°25' E 004°53'0 0.0
2014-Dec-13 17:34N 43°25' E 004°53'0 0.0
2014-Dec-13 16:34N 43°25' E 004°53'0 0.0
2014-Dec-13 15:34N 43°25' E 004°53'0 0.0
2014-Dec-13 14:34N 43°25' E 004°53'0 0.0
2014-Dec-13 13:34N 43°25' E 004°53'0 0.0
2014-Dec-13 12:31N 43°25' E 004°53'0 0.0
2014-Dec-13 11:28N 43°25' E 004°53'0 0.0
2014-Dec-13 10:34N 43°25' E 004°53'0 0.0
2014-Dec-13 09:33N 43°25' E 004°53'0 0.0
2014-Dec-13 08:33N 43°25' E 004°53'0 0.0
2014-Dec-13 07:34N 43°25' E 004°53'0 0.0
2014-Dec-13 06:34N 43°25' E 004°53'0 0.0
2014-Dec-13 05:33N 43°25' E 004°53'0 0.0
2014-Dec-13 04:33N 43°25' E 004°53'0 0.0
2014-Dec-13 03:33N 43°25' E 004°53'0 0.0
2014-Dec-13 02:33N 43°25' E 004°53'1 1.1
2014-Dec-13 01:32N 43°25' E 004°55'0 0.0
2014-Dec-13 00:32N 43°25' E 004°55'0 0.0
2014-Dec-12 23:32N 43°25' E 004°55'0 0.0
2014-Dec-12 22:32N 43°25' E 004°55'0 0.0
2014-Dec-12 21:32N 43°25' E 004°55'0 0.1
2014-Dec-12 20:32N 43°25' E 004°55'0 0.0
2014-Dec-12 19:32N 43°25' E 004°55'0 0.0
2014-Dec-12 18:32N 43°25' E 004°55'0 0.0
2014-Dec-12 17:32N 43°25' E 004°55'0 0.0
2014-Dec-12 16:32N 43°25' E 004°55'0 0.0
2014-Dec-12 15:32N 43°25' E 004°55'0 0.0
2014-Dec-12 14:32N 43°25' E 004°55'0 0.0
2014-Dec-12 13:32N 43°25' E 004°55'0 0.0
2014-Dec-12 12:32N 43°25' E 004°55'0 0.0
2014-Dec-12 11:32N 43°25' E 004°55'0 0.0
2014-Dec-12 10:32N 43°25' E 004°55'0 0.0
2014-Dec-12 09:32N 43°25' E 004°55'0 0.0
2014-Dec-12 08:32N 43°25' E 004°55'0 0.0
2014-Dec-12 07:32N 43°25' E 004°55'0 0.0
2014-Dec-12 06:32N 43°25' E 004°55'0 0.1
2014-Dec-12 05:32N 43°25' E 004°55'0 0.0
2014-Dec-12 04:32N 43°25' E 004°55'0 0.0
2014-Dec-12 03:32N 43°25' E 004°55'0 0.0
2014-Dec-12 02:32N 43°25' E 004°55'0 0.0
2014-Dec-12 01:32N 43°25' E 004°55'0 0.0
2014-Dec-12 00:32N 43°25' E 004°55'0 0.0
2014-Dec-11 23:32N 43°25' E 004°55'5 4.6
2014-Dec-11 22:33N 43°21' E 004°59'8 8.3
2014-Dec-11 21:33N 43°13' E 005°02'9 8.9
2014-Dec-11 20:33N 43°06' E 004°55'10 9.8
2014-Dec-11 19:34N 42°59' E 004°46'9 9.1
2014-Dec-11 18:33N 42°52' E 004°38'9 9.1
2014-Dec-11 17:32N 42°45' E 004°29'12 8.4
2014-Dec-11 16:07N 42°37' E 004°17'5 7.3
2014-Dec-11 15:25N 42°33' E 004°12'15 7.4
2014-Dec-11 13:24N 42°22' E 003°59'7 6.4
2014-Dec-11 12:18N 42°16' E 003°55'4 3.9
2014-Dec-11 11:19N 42°12' E 003°53'4 5.6
2014-Dec-11 10:33N 42°08' E 003°50'5 5.4
2014-Dec-11 09:33N 42°05' E 003°45'5 4.6
2014-Dec-11 08:32N 42°02' E 003°40'5 4.5
2014-Dec-11 07:32N 41°60' E 003°34'6 5.7
2014-Dec-11 06:33N 41°57' E 003°28'6 6.0
2014-Dec-11 05:33N 41°51' E 003°27'8 8.3
2014-Dec-11 04:33N 41°45' E 003°19'1110.8
2014-Dec-11 03:33N 41°37' E 003°09'1211.3
2014-Dec-11 02:31N 41°30' E 002°57'1110.9
2014-Dec-11 01:33N 41°26' E 002°44'1110.7
2014-Dec-11 00:33N 41°22' E 002°31'  

Dump ship's entire track history